KDMW

Carroll County Regional / Jack B Poage Field Airport

Westminster, Maryland, USA
METAR KDMW 211955Z AUTO 17004KT 10SM OVC070 14/06 A3012 RMK AO2
Observed Flight Rules
Jan-21 @ 19:55 UTC (27 minutes ago) Visual Flight Rules
Wind Visibility Clouds
170° at 4 knots 10 miles
  • Overcast at 7,000' AGL
Temperatures Readings
Current 14°C / 57°F
Dewpoint 6°C / 43°F
Humidity 59%
Altimeter 30.12" Hg
Pressure 1020 hPa
Elevation 241
METAR KDMW 211955Z AUTO 17004KT 10SM OVC070 14/06 A3012 RMK AO2
Observed Flight Rules
Jan-21 @ 19:55 UTC
(27 minutes ago)
VFR
Wind Visibility
170° at 4 knots 10 miles
Clouds
  • Overcast at 7,000' AGL
Temperature Dewpoint
14°C / 57°F 6°C / 43°F
Humidity Altimeter Pressure
59% 30.12" Hg 1020 hPa